sensor_id;sensor_type;location;lat;lon;timestamp;pressure;altitude;pressure_sealevel;temperature;humidity
76352;BME280;65179;47.786;19.138;2023-04-24T00:01:48;99555.12;;;14.92;49.11
76352;BME280;65179;47.786;19.138;2023-04-24T00:04:13;99553.78;;;14.90;48.94
76352;BME280;65179;47.786;19.138;2023-04-24T00:06:41;99554.31;;;14.97;49.14
76352;BME280;65179;47.786;19.138;2023-04-24T00:09:08;99557.88;;;14.97;48.14
76352;BME280;65179;47.786;19.138;2023-04-24T00:11:35;99548.31;;;14.95;48.25
76352;BME280;65179;47.786;19.138;2023-04-24T00:14:01;99552.97;;;14.99;46.50
76352;BME280;65179;47.786;19.138;2023-04-24T00:16:26;99543.13;;;14.98;47.08
76352;BME280;65179;47.786;19.138;2023-04-24T00:18:52;99542.03;;;14.99;46.65
76352;BME280;65179;47.786;19.138;2023-04-24T00:21:18;99542.56;;;15.01;46.17
76352;BME280;65179;47.786;19.138;2023-04-24T00:23:43;99537.94;;;15.02;46.56
76352;BME280;65179;47.786;19.138;2023-04-24T00:26:09;99532.94;;;14.84;46.35
76352;BME280;65179;47.786;19.138;2023-04-24T00:28:35;99537.09;;;14.91;46.19
76352;BME280;65179;47.786;19.138;2023-04-24T00:31:01;99535.19;;;14.92;46.28
76352;BME280;65179;47.786;19.138;2023-04-24T00:33:26;99541.44;;;14.92;46.48
76352;BME280;65179;47.786;19.138;2023-04-24T00:35:52;99548.56;;;14.93;46.75
76352;BME280;65179;47.786;19.138;2023-04-24T00:38:18;99542.59;;;14.96;47.22
76352;BME280;65179;47.786;19.138;2023-04-24T00:40:43;99533.25;;;14.92;46.75
76352;BME280;65179;47.786;19.138;2023-04-24T00:43:09;99537.66;;;15.03;46.82
76352;BME280;65179;47.786;19.138;2023-04-24T00:45:35;99538.75;;;15.07;46.77
76352;BME280;65179;47.786;19.138;2023-04-24T00:48:01;99544.50;;;15.06;46.89
76352;BME280;65179;47.786;19.138;2023-04-24T00:50:27;99551.03;;;14.95;46.89
76352;BME280;65179;47.786;19.138;2023-04-24T00:52:53;99552.41;;;14.87;47.82
76352;BME280;65179;47.786;19.138;2023-04-24T00:55:19;99555.12;;;14.87;47.70
76352;BME280;65179;47.786;19.138;2023-04-24T00:57:45;99550.44;;;14.78;49.06
76352;BME280;65179;47.786;19.138;2023-04-24T01:00:11;99555.06;;;14.77;50.84
76352;BME280;65179;47.786;19.138;2023-04-24T01:02:41;99546.88;;;14.77;53.05
76352;BME280;65179;47.786;19.138;2023-04-24T01:05:11;99551.22;;;14.73;52.70
76352;BME280;65179;47.786;19.138;2023-04-24T01:07:38;99554.03;;;14.83;53.19
76352;BME280;65179;47.786;19.138;2023-04-24T01:10:04;99560.00;;;14.80;52.98
76352;BME280;65179;47.786;19.138;2023-04-24T01:12:30;99555.28;;;14.61;54.94
76352;BME280;65179;47.786;19.138;2023-04-24T01:14:56;99556.97;;;14.72;55.17
76352;BME280;65179;47.786;19.138;2023-04-24T01:17:22;99555.81;;;14.58;55.96
76352;BME280;65179;47.786;19.138;2023-04-24T01:19:47;99549.94;;;14.34;57.35
76352;BME280;65179;47.786;19.138;2023-04-24T01:22:16;99552.72;;;14.39;58.63
76352;BME280;65179;47.786;19.138;2023-04-24T01:24:42;99552.50;;;14.09;60.04
76352;BME280;65179;47.786;19.138;2023-04-24T01:27:10;99542.22;;;14.26;60.60
76352;BME280;65179;47.786;19.138;2023-04-24T01:29:36;99545.81;;;14.31;60.85
76352;BME280;65179;47.786;19.138;2023-04-24T01:32:02;99537.97;;;14.40;60.80
76352;BME280;65179;47.786;19.138;2023-04-24T01:34:28;99531.13;;;14.37;61.07
76352;BME280;65179;47.786;19.138;2023-04-24T01:36:53;99528.09;;;14.34;60.33
76352;BME280;65179;47.786;19.138;2023-04-24T01:39:19;99534.47;;;14.08;61.38
76352;BME280;65179;47.786;19.138;2023-04-24T01:41:46;99532.78;;;13.97;63.41
76352;BME280;65179;47.786;19.138;2023-04-24T01:44:11;99535.75;;;13.90;62.73
76352;BME280;65179;47.786;19.138;2023-04-24T01:46:37;99537.13;;;13.98;62.76
76352;BME280;65179;47.786;19.138;2023-04-24T01:49:03;99538.28;;;14.07;62.26
76352;BME280;65179;47.786;19.138;2023-04-24T01:51:29;99529.37;;;14.21;62.27
76352;BME280;65179;47.786;19.138;2023-04-24T01:53:55;99526.41;;;14.28;62.01
76352;BME280;65179;47.786;19.138;2023-04-24T01:56:22;99524.28;;;14.35;60.17
76352;BME280;65179;47.786;19.138;2023-04-24T01:58:49;99522.34;;;14.30;59.37
76352;BME280;65179;47.786;19.138;2023-04-24T02:01:19;99509.25;;;14.32;58.54
76352;BME280;65179;47.786;19.138;2023-04-24T02:03:45;99508.69;;;14.30;56.78
76352;BME280;65179;47.786;19.138;2023-04-24T02:06:10;99505.87;;;14.20;55.92
76352;BME280;65179;47.786;19.138;2023-04-24T02:08:36;99500.19;;;14.27;55.74
76352;BME280;65179;47.786;19.138;2023-04-24T02:11:01;99504.31;;;14.29;55.46
76352;BME280;65179;47.786;19.138;2023-04-24T02:13:27;99493.03;;;14.16;53.09
76352;BME280;65179;47.786;19.138;2023-04-24T02:15:53;99495.31;;;14.34;54.40
76352;BME280;65179;47.786;19.138;2023-04-24T02:18:18;99499.97;;;14.33;54.93
76352;BME280;65179;47.786;19.138;2023-04-24T02:20:43;99499.38;;;14.26;55.23
76352;BME280;65179;47.786;19.138;2023-04-24T02:23:09;99503.25;;;14.35;55.30
76352;BME280;65179;47.786;19.138;2023-04-24T02:25:34;99498.09;;;14.39;55.36
76352;BME280;65179;47.786;19.138;2023-04-24T02:28:00;99487.91;;;14.29;55.12
76352;BME280;65179;47.786;19.138;2023-04-24T02:30:25;99490.22;;;14.06;57.50
76352;BME280;65179;47.786;19.138;2023-04-24T02:32:51;99489.44;;;14.10;57.58
76352;BME280;65179;47.786;19.138;2023-04-24T02:35:16;99480.50;;;13.78;59.89
76352;BME280;65179;47.786;19.138;2023-04-24T02:37:42;99489.13;;;14.02;59.74
76352;BME280;65179;47.786;19.138;2023-04-24T02:40:08;99473.84;;;14.06;60.08
76352;BME280;65179;47.786;19.138;2023-04-24T02:42:34;99465.66;;;14.01;60.23
76352;BME280;65179;47.786;19.138;2023-04-24T02:44:59;99456.03;;;13.93;62.43
76352;BME280;65179;47.786;19.138;2023-04-24T02:47:25;99450.81;;;13.87;60.80
76352;BME280;65179;47.786;19.138;2023-04-24T02:49:50;99433.88;;;13.85;58.75
76352;BME280;65179;47.786;19.138;2023-04-24T02:52:15;99442.47;;;13.61;57.62
76352;BME280;65179;47.786;19.138;2023-04-24T02:54:42;99450.66;;;13.66;57.89
76352;BME280;65179;47.786;19.138;2023-04-24T02:57:08;99439.59;;;13.83;59.12
76352;BME280;65179;47.786;19.138;2023-04-24T02:59:33;99436.47;;;13.64;59.49
76352;BME280;65179;47.786;19.138;2023-04-24T03:01:59;99432.22;;;13.79;59.09
76352;BME280;65179;47.786;19.138;2023-04-24T03:04:24;99425.03;;;13.67;59.36
76352;BME280;65179;47.786;19.138;2023-04-24T03:06:50;99425.56;;;13.64;59.40
76352;BME280;65179;47.786;19.138;2023-04-24T03:09:18;99427.72;;;13.62;59.48
76352;BME280;65179;47.786;19.138;2023-04-24T03:11:43;99418.16;;;13.55;59.47
76352;BME280;65179;47.786;19.138;2023-04-24T03:14:09;99418.72;;;13.57;59.75
76352;BME280;65179;47.786;19.138;2023-04-24T03:16:34;99422.03;;;13.69;59.25
76352;BME280;65179;47.786;19.138;2023-04-24T03:19:00;99420.94;;;13.65;59.37
76352;BME280;65179;47.786;19.138;2023-04-24T03:21:25;99431.84;;;13.65;59.41
76352;BME280;65179;47.786;19.138;2023-04-24T03:23:51;99419.59;;;13.67;59.83
76352;BME280;65179;47.786;19.138;2023-04-24T03:26:17;99422.88;;;13.69;59.47
76352;BME280;65179;47.786;19.138;2023-04-24T03:28:42;99423.88;;;13.58;60.15
76352;BME280;65179;47.786;19.138;2023-04-24T03:31:08;99427.22;;;13.65;60.40
76352;BME280;65179;47.786;19.138;2023-04-24T03:33:33;99423.94;;;13.63;62.31
76352;BME280;65179;47.786;19.138;2023-04-24T03:35:58;99431.97;;;13.43;61.85
76352;BME280;65179;47.786;19.138;2023-04-24T03:38:24;99424.38;;;13.50;61.00
76352;BME280;65179;47.786;19.138;2023-04-24T03:40:49;99428.06;;;13.66;60.45
76352;BME280;65179;47.786;19.138;2023-04-24T03:43:15;99427.44;;;13.59;60.55
76352;BME280;65179;47.786;19.138;2023-04-24T03:45:40;99429.87;;;13.55;60.55
76352;BME280;65179;47.786;19.138;2023-04-24T03:48:06;99429.84;;;13.50;60.42
76352;BME280;65179;47.786;19.138;2023-04-24T03:50:32;99432.00;;;13.48;60.43
76352;BME280;65179;47.786;19.138;2023-04-24T03:52:58;99442.66;;;13.50;59.90
76352;BME280;65179;47.786;19.138;2023-04-24T03:55:23;99437.97;;;13.45;60.04
76352;BME280;65179;47.786;19.138;2023-04-24T03:57:49;99439.03;;;13.39;59.80
76352;BME280;65179;47.786;19.138;2023-04-24T04:00:14;99440.41;;;13.42;59.83
76352;BME280;65179;47.786;19.138;2023-04-24T04:02:40;99437.63;;;13.32;59.74
76352;BME280;65179;47.786;19.138;2023-04-24T04:05:06;99435.69;;;13.32;59.97
76352;BME280;65179;47.786;19.138;2023-04-24T04:07:33;99428.50;;;13.16;60.05
76352;BME280;65179;47.786;19.138;2023-04-24T04:09:58;99437.47;;;13.17;60.12
76352;BME280;65179;47.786;19.138;2023-04-24T04:12:24;99438.22;;;13.07;60.07
76352;BME280;65179;47.786;19.138;2023-04-24T04:14:49;99437.03;;;12.98;60.36
76352;BME280;65179;47.786;19.138;2023-04-24T04:17:15;99438.13;;;12.97;60.36
76352;BME280;65179;47.786;19.138;2023-04-24T04:19:40;99432.81;;;12.85;60.62
76352;BME280;65179;47.786;19.138;2023-04-24T04:22:06;99445.06;;;12.83;60.74
76352;BME280;65179;47.786;19.138;2023-04-24T04:24:33;99450.50;;;12.83;60.69
76352;BME280;65179;47.786;19.138;2023-04-24T04:26:59;99441.78;;;13.08;60.75
76352;BME280;65179;47.786;19.138;2023-04-24T04:29:25;99438.78;;;13.09;60.02
76352;BME280;65179;47.786;19.138;2023-04-24T04:31:51;99429.22;;;13.07;60.14
76352;BME280;65179;47.786;19.138;2023-04-24T04:34:17;99428.34;;;13.01;60.19
76352;BME280;65179;47.786;19.138;2023-04-24T04:36:43;99431.13;;;13.06;60.26
76352;BME280;65179;47.786;19.138;2023-04-24T04:39:09;99423.94;;;13.00;60.35
76352;BME280;65179;47.786;19.138;2023-04-24T04:41:34;99429.31;;;12.90;61.32
76352;BME280;65179;47.786;19.138;2023-04-24T04:44:01;99433.84;;;13.06;61.09
76352;BME280;65179;47.786;19.138;2023-04-24T04:46:27;99434.03;;;13.00;62.24
76352;BME280;65179;47.786;19.138;2023-04-24T04:48:53;99434.75;;;13.17;61.35
76352;BME280;65179;47.786;19.138;2023-04-24T04:51:18;99433.75;;;13.28;61.28
76352;BME280;65179;47.786;19.138;2023-04-24T04:53:44;99423.72;;;13.33;61.71
76352;BME280;65179;47.786;19.138;2023-04-24T04:56:09;99412.59;;;13.40;61.16
76352;BME280;65179;47.786;19.138;2023-04-24T04:58:35;99412.25;;;13.31;61.36
76352;BME280;65179;47.786;19.138;2023-04-24T05:01:00;99411.69;;;13.29;61.77
76352;BME280;65179;47.786;19.138;2023-04-24T05:03:26;99419.91;;;13.34;61.43
76352;BME280;65179;47.786;19.138;2023-04-24T05:05:51;99420.78;;;13.45;61.45
76352;BME280;65179;47.786;19.138;2023-04-24T05:08:17;99423.94;;;13.27;62.62
76352;BME280;65179;47.786;19.138;2023-04-24T05:10:42;99429.06;;;13.23;62.47
76352;BME280;65179;47.786;19.138;2023-04-24T05:13:08;99430.66;;;13.14;62.65
76352;BME280;65179;47.786;19.138;2023-04-24T05:15:33;99431.13;;;13.06;62.76
76352;BME280;65179;47.786;19.138;2023-04-24T05:17:59;99433.03;;;12.79;63.10
76352;BME280;65179;47.786;19.138;2023-04-24T05:20:24;99429.41;;;13.00;63.31
76352;BME280;65179;47.786;19.138;2023-04-24T05:22:50;99431.22;;;13.16;63.60
76352;BME280;65179;47.786;19.138;2023-04-24T05:25:15;99416.53;;;13.22;62.55
76352;BME280;65179;47.786;19.138;2023-04-24T05:27:40;99410.25;;;13.22;62.25
76352;BME280;65179;47.786;19.138;2023-04-24T05:30:06;99417.38;;;13.23;62.45
76352;BME280;65179;47.786;19.138;2023-04-24T05:32:32;99403.84;;;13.38;62.19
76352;BME280;65179;47.786;19.138;2023-04-24T05:34:58;99430.13;;;13.17;63.07
76352;BME280;65179;47.786;19.138;2023-04-24T05:37:23;99422.91;;;13.33;63.26
76352;BME280;65179;47.786;19.138;2023-04-24T05:39:48;99424.69;;;13.17;63.25
76352;BME280;65179;47.786;19.138;2023-04-24T05:42:14;99422.50;;;13.19;63.11
76352;BME280;65179;47.786;19.138;2023-04-24T05:44:39;99424.22;;;13.30;62.91
76352;BME280;65179;47.786;19.138;2023-04-24T05:47:05;99418.88;;;13.40;62.34
76352;BME280;65179;47.786;19.138;2023-04-24T05:49:31;99421.00;;;13.38;62.73
76352;BME280;65179;47.786;19.138;2023-04-24T05:51:57;99420.91;;;13.23;63.23
76352;BME280;65179;47.786;19.138;2023-04-24T05:54:22;99418.97;;;13.55;62.58
76352;BME280;65179;47.786;19.138;2023-04-24T05:56:49;99412.03;;;13.43;63.25
76352;BME280;65179;47.786;19.138;2023-04-24T05:59:14;99417.38;;;13.59;63.00
76352;BME280;65179;47.786;19.138;2023-04-24T06:01:40;99412.91;;;13.48;63.46
76352;BME280;65179;47.786;19.138;2023-04-24T06:04:05;99417.81;;;13.46;64.45
76352;BME280;65179;47.786;19.138;2023-04-24T06:06:31;99424.38;;;13.50;64.02
76352;BME280;65179;47.786;19.138;2023-04-24T06:08:57;99425.59;;;13.69;63.88
76352;BME280;65179;47.786;19.138;2023-04-24T06:11:24;99421.50;;;13.67;63.51
76352;BME280;65179;47.786;19.138;2023-04-24T06:13:50;99426.78;;;13.84;63.01
76352;BME280;65179;47.786;19.138;2023-04-24T06:16:15;99434.97;;;13.84;62.89
76352;BME280;65179;47.786;19.138;2023-04-24T06:18:41;99426.53;;;13.85;63.57
76352;BME280;65179;47.786;19.138;2023-04-24T06:21:06;99418.34;;;13.85;63.13
76352;BME280;65179;47.786;19.138;2023-04-24T06:23:31;99424.69;;;14.01;62.77
76352;BME280;65179;47.786;19.138;2023-04-24T06:25:58;99425.25;;;14.08;63.76
76352;BME280;65179;47.786;19.138;2023-04-24T06:28:24;99422.84;;;14.16;62.41
76352;BME280;65179;47.786;19.138;2023-04-24T06:30:50;99433.75;;;14.11;62.86
76352;BME280;65179;47.786;19.138;2023-04-24T06:33:16;99435.94;;;14.14;62.58
76352;BME280;65179;47.786;19.138;2023-04-24T06:35:41;99435.69;;;14.16;62.77
76352;BME280;65179;47.786;19.138;2023-04-24T06:38:07;99432.13;;;14.15;62.52
76352;BME280;65179;47.786;19.138;2023-04-24T06:40:32;99436.22;;;14.13;62.36
76352;BME280;65179;47.786;19.138;2023-04-24T06:42:58;99437.31;;;14.12;62.40
76352;BME280;65179;47.786;19.138;2023-04-24T06:45:25;99428.50;;;14.00;62.73
76352;BME280;65179;47.786;19.138;2023-04-24T06:47:51;99421.06;;;13.85;62.85
76352;BME280;65179;47.786;19.138;2023-04-24T06:50:16;99424.34;;;13.87;62.55
76352;BME280;65179;47.786;19.138;2023-04-24T06:52:42;99426.75;;;13.79;63.04
76352;BME280;65179;47.786;19.138;2023-04-24T06:55:08;99419.63;;;13.73;63.02
76352;BME280;65179;47.786;19.138;2023-04-24T06:57:33;99425.69;;;13.85;62.97
76352;BME280;65179;47.786;19.138;2023-04-24T06:59:59;99431.44;;;13.88;64.08
76352;BME280;65179;47.786;19.138;2023-04-24T07:02:24;99425.72;;;13.90;64.16
76352;BME280;65179;47.786;19.138;2023-04-24T07:04:50;99427.91;;;13.93;63.65
76352;BME280;65179;47.786;19.138;2023-04-24T07:07:15;99431.78;;;14.02;63.38
76352;BME280;65179;47.786;19.138;2023-04-24T07:09:41;99434.78;;;14.00;63.29
76352;BME280;65179;47.786;19.138;2023-04-24T07:12:08;99423.59;;;14.02;64.60
76352;BME280;65179;47.786;19.138;2023-04-24T07:14:36;99432.09;;;14.10;63.53
76352;BME280;65179;47.786;19.138;2023-04-24T07:17:06;99431.88;;;14.22;63.51
76352;BME280;65179;47.786;19.138;2023-04-24T07:19:35;99420.97;;;14.22;63.20
76352;BME280;65179;47.786;19.138;2023-04-24T07:22:01;99422.59;;;14.18;63.12
76352;BME280;65179;47.786;19.138;2023-04-24T07:24:26;99425.53;;;14.06;63.33
76352;BME280;65179;47.786;19.138;2023-04-24T07:26:52;99424.72;;;14.11;63.10
76352;BME280;65179;47.786;19.138;2023-04-24T07:29:18;99425.34;;;14.28;62.89
76352;BME280;65179;47.786;19.138;2023-04-24T07:31:44;99428.34;;;14.26;63.28
76352;BME280;65179;47.786;19.138;2023-04-24T07:34:09;99428.44;;;14.41;62.65
76352;BME280;65179;47.786;19.138;2023-04-24T07:36:35;99433.84;;;14.31;62.80
76352;BME280;65179;47.786;19.138;2023-04-24T07:39:00;99431.91;;;14.27;63.45
76352;BME280;65179;47.786;19.138;2023-04-24T07:41:26;99432.53;;;14.39;62.94
76352;BME280;65179;47.786;19.138;2023-04-24T07:43:53;99428.97;;;14.33;63.01
76352;BME280;65179;47.786;19.138;2023-04-24T07:46:19;99423.25;;;14.40;63.15
76352;BME280;65179;47.786;19.138;2023-04-24T07:48:45;99421.63;;;14.44;63.09
76352;BME280;65179;47.786;19.138;2023-04-24T07:51:13;99418.94;;;14.59;62.72
76352;BME280;65179;47.786;19.138;2023-04-24T07:53:39;99413.22;;;14.86;62.19
76352;BME280;65179;47.786;19.138;2023-04-24T07:56:04;99423.28;;;14.60;63.72
76352;BME280;65179;47.786;19.138;2023-04-24T07:58:31;99410.50;;;14.86;62.57
76352;BME280;65179;47.786;19.138;2023-04-24T08:00:58;99413.22;;;14.76;62.80
76352;BME280;65179;47.786;19.138;2023-04-24T08:03:25;99408.88;;;15.00;61.91
76352;BME280;65179;47.786;19.138;2023-04-24T08:05:52;99404.22;;;15.20;61.42
76352;BME280;65179;47.786;19.138;2023-04-24T08:08:21;99407.22;;;15.04;61.88
76352;BME280;65179;47.786;19.138;2023-04-24T08:10:49;99409.16;;;15.08;62.09
76352;BME280;65179;47.786;19.138;2023-04-24T08:13:16;99414.63;;;15.24;61.46
76352;BME280;65179;47.786;19.138;2023-04-24T08:15:43;99406.72;;;15.52;60.70
76352;BME280;65179;47.786;19.138;2023-04-24T08:18:10;99411.88;;;15.74;60.18
76352;BME280;65179;47.786;19.138;2023-04-24T08:20:38;99416.47;;;15.88;60.11
76352;BME280;65179;47.786;19.138;2023-04-24T08:23:05;99415.09;;;15.91;60.12
76352;BME280;65179;47.786;19.138;2023-04-24T08:25:34;99410.12;;;16.03;60.56
76352;BME280;65179;47.786;19.138;2023-04-24T08:28:03;99404.97;;;15.91;60.78
76352;BME280;65179;47.786;19.138;2023-04-24T08:30:30;99401.41;;;15.86;61.02
76352;BME280;65179;47.786;19.138;2023-04-24T08:32:57;99404.97;;;15.86;60.77
76352;BME280;65179;47.786;19.138;2023-04-24T08:35:24;99408.50;;;15.92;60.81
76352;BME280;65179;47.786;19.138;2023-04-24T08:37:52;99401.88;;;16.13;60.11
76352;BME280;65179;47.786;19.138;2023-04-24T08:40:26;99412.25;;;16.16;60.19
76352;BME280;65179;47.786;19.138;2023-04-24T08:42:57;99407.63;;;16.12;60.47
76352;BME280;65179;47.786;19.138;2023-04-24T08:45:25;99408.94;;;16.29;60.46
76352;BME280;65179;47.786;19.138;2023-04-24T08:47:53;99414.13;;;16.31;60.18
76352;BME280;65179;47.786;19.138;2023-04-24T08:50:24;99413.72;;;16.62;59.89
76352;BME280;65179;47.786;19.138;2023-04-24T08:52:51;99406.97;;;16.89;59.29
76352;BME280;65179;47.786;19.138;2023-04-24T08:55:24;99407.50;;;16.91;59.13
76352;BME280;65179;47.786;19.138;2023-04-24T08:57:52;99405.31;;;16.93;59.18
76352;BME280;65179;47.786;19.138;2023-04-24T09:00:23;99409.22;;;16.77;60.13
76352;BME280;65179;47.786;19.138;2023-04-24T09:02:51;99409.28;;;16.72;60.37
76352;BME280;65179;47.786;19.138;2023-04-24T09:05:19;99404.88;;;16.71;60.42
76352;BME280;65179;47.786;19.138;2023-04-24T09:07:54;99402.91;;;16.27;60.83
76352;BME280;65179;47.786;19.138;2023-04-24T09:10:25;99395.81;;;16.26;60.92
76352;BME280;65179;47.786;19.138;2023-04-24T09:12:54;99392.41;;;16.44;60.55
76352;BME280;65179;47.786;19.138;2023-04-24T09:15:21;99388.25;;;16.57;60.59
76352;BME280;65179;47.786;19.138;2023-04-24T09:17:48;99396.44;;;16.67;60.41
76352;BME280;65179;47.786;19.138;2023-04-24T09:20:16;99392.22;;;16.80;60.17
76352;BME280;65179;47.786;19.138;2023-04-24T09:22:43;99386.50;;;16.76;60.38
76352;BME280;65179;47.786;19.138;2023-04-24T09:25:14;99387.28;;;16.77;60.36
76352;BME280;65179;47.786;19.138;2023-04-24T09:27:45;99382.09;;;16.80;60.47
76352;BME280;65179;47.786;19.138;2023-04-24T09:30:16;99371.53;;;16.97;59.83
76352;BME280;65179;47.786;19.138;2023-04-24T09:32:47;99375.44;;;17.20;59.30
76352;BME280;65179;47.786;19.138;2023-04-24T09:35:15;99369.53;;;17.08;59.69
76352;BME280;65179;47.786;19.138;2023-04-24T09:37:46;99368.03;;;17.20;59.51
76352;BME280;65179;47.786;19.138;2023-04-24T09:40:18;99361.37;;;17.26;59.53
76352;BME280;65179;47.786;19.138;2023-04-24T09:42:55;99359.84;;;17.44;59.08
76352;BME280;65179;47.786;19.138;2023-04-24T09:45:43;99358.94;;;17.25;59.26
76352;BME280;65179;47.786;19.138;2023-04-24T09:48:10;99352.78;;;17.38;59.56
76352;BME280;65179;47.786;19.138;2023-04-24T09:50:38;99353.59;;;17.67;58.50
76352;BME280;65179;47.786;19.138;2023-04-24T09:53:06;99356.53;;;17.76;58.90
76352;BME280;65179;47.786;19.138;2023-04-24T09:55:43;99353.31;;;17.69;58.19
76352;BME280;65179;47.786;19.138;2023-04-24T09:58:14;99350.22;;;17.99;57.96
76352;BME280;65179;47.786;19.138;2023-04-24T10:00:41;99351.97;;;18.56;56.32
76352;BME280;65179;47.786;19.138;2023-04-24T10:03:08;99348.53;;;18.64;56.15
76352;BME280;65179;47.786;19.138;2023-04-24T10:05:37;99345.22;;;18.43;56.97
76352;BME280;65179;47.786;19.138;2023-04-24T10:08:10;99345.22;;;18.43;58.37
76352;BME280;65179;47.786;19.138;2023-04-24T10:10:42;99344.22;;;18.58;57.10
76352;BME280;65179;47.786;19.138;2023-04-24T10:13:10;99340.06;;;19.11;56.01
76352;BME280;65179;47.786;19.138;2023-04-24T10:15:38;99346.78;;;19.05;56.64
76352;BME280;65179;47.786;19.138;2023-04-24T10:18:07;99348.91;;;19.08;56.13
76352;BME280;65179;47.786;19.138;2023-04-24T10:20:36;99338.25;;;18.88;57.17
76352;BME280;65179;47.786;19.138;2023-04-24T10:23:04;99336.25;;;18.75;56.96
76352;BME280;65179;47.786;19.138;2023-04-24T10:25:33;99337.75;;;18.86;56.83
76352;BME280;65179;47.786;19.138;2023-04-24T10:28:01;99333.59;;;19.02;56.78
76352;BME280;65179;47.786;19.138;2023-04-24T10:30:33;99337.00;;;18.62;57.73
76352;BME280;65179;47.786;19.138;2023-04-24T10:33:04;99327.91;;;18.80;57.38
76352;BME280;65179;47.786;19.138;2023-04-24T10:35:37;99329.84;;;18.61;58.62
76352;BME280;65179;47.786;19.138;2023-04-24T10:38:11;99330.53;;;18.53;58.92
76352;BME280;65179;47.786;19.138;2023-04-24T10:40:38;99315.97;;;18.71;58.29
76352;BME280;65179;47.786;19.138;2023-04-24T10:43:06;99326.06;;;18.75;58.20
76352;BME280;65179;47.786;19.138;2023-04-24T10:45:38;99326.56;;;18.96;57.51
76352;BME280;65179;47.786;19.138;2023-04-24T10:48:07;99322.56;;;18.70;58.04
76352;BME280;65179;47.786;19.138;2023-04-24T10:50:53;99323.69;;;18.50;58.89
76352;BME280;65179;47.786;19.138;2023-04-24T10:53:29;99323.25;;;18.62;58.35
76352;BME280;65179;47.786;19.138;2023-04-24T10:56:07;99330.91;;;18.46;58.73
76352;BME280;65179;47.786;19.138;2023-04-24T10:58:44;99328.38;;;18.50;58.99
76352;BME280;65179;47.786;19.138;2023-04-24T11:01:31;99334.47;;;18.47;58.58
76352;BME280;65179;47.786;19.138;2023-04-24T11:04:02;99325.72;;;18.45;58.19
76352;BME280;65179;47.786;19.138;2023-04-24T11:06:36;99326.84;;;18.39;57.98
76352;BME280;65179;47.786;19.138;2023-04-24T11:09:09;99324.91;;;18.44;57.76
76352;BME280;65179;47.786;19.138;2023-04-24T11:11:38;99327.34;;;18.46;58.76
76352;BME280;65179;47.786;19.138;2023-04-24T11:14:09;99326.84;;;18.39;59.65
76352;BME280;65179;47.786;19.138;2023-04-24T11:19:25;99325.44;;;18.04;59.61
76352;BME280;65179;47.786;19.138;2023-04-24T11:24:48;99329.59;;;18.20;57.52
76352;BME280;65179;47.786;19.138;2023-04-24T11:27:20;99318.50;;;18.06;55.48
76352;BME280;65179;47.786;19.138;2023-04-24T11:35:08;99326.59;;;17.74;54.55
76352;BME280;65179;47.786;19.138;2023-04-24T11:37:36;99318.38;;;17.74;54.96
76352;BME280;65179;47.786;19.138;2023-04-24T11:40:05;99319.06;;;17.61;55.36
76352;BME280;65179;47.786;19.138;2023-04-24T11:42:36;99321.38;;;17.49;55.58
76352;BME280;65179;47.786;19.138;2023-04-24T11:45:08;99323.88;;;17.45;56.89
76352;BME280;65179;47.786;19.138;2023-04-24T11:47:36;99314.06;;;17.39;57.19
76352;BME280;65179;47.786;19.138;2023-04-24T11:50:08;99314.75;;;17.26;57.42
76352;BME280;65179;47.786;19.138;2023-04-24T11:52:40;99318.94;;;17.19;59.22
76352;BME280;65179;47.786;19.138;2023-04-24T11:57:46;99316.09;;;17.29;58.27
76352;BME280;65179;47.786;19.138;2023-04-24T12:00:21;99316.63;;;17.31;58.38
76352;BME280;65179;47.786;19.138;2023-04-24T12:02:49;99314.34;;;17.38;59.42
76352;BME280;65179;47.786;19.138;2023-04-24T12:05:45;99309.44;;;17.35;58.77
76352;BME280;65179;47.786;19.138;2023-04-24T12:08:12;99299.31;;;17.30;58.86
76352;BME280;65179;47.786;19.138;2023-04-24T12:10:53;99301.81;;;17.32;58.57
76352;BME280;65179;47.786;19.138;2023-04-24T12:13:20;99301.88;;;17.22;58.45
76352;BME280;65179;47.786;19.138;2023-04-24T12:15:50;99299.09;;;17.27;58.48
76352;BME280;65179;47.786;19.138;2023-04-24T12:18:18;99304.25;;;17.33;57.86
76352;BME280;65179;47.786;19.138;2023-04-24T12:20:45;99293.38;;;17.23;58.15
76352;BME280;65179;47.786;19.138;2023-04-24T12:23:11;99287.47;;;17.35;57.93
76352;BME280;65179;47.786;19.138;2023-04-24T12:25:39;99286.38;;;17.36;58.04
76352;BME280;65179;47.786;19.138;2023-04-24T12:30:38;99285.13;;;17.52;57.88
76352;BME280;65179;47.786;19.138;2023-04-24T12:33:05;99284.31;;;17.52;57.79
76352;BME280;65179;47.786;19.138;2023-04-24T12:35:33;99281.28;;;17.53;57.86
76352;BME280;65179;47.786;19.138;2023-04-24T12:38:12;99271.34;;;17.57;57.56
76352;BME280;65179;47.786;19.138;2023-04-24T12:40:40;99276.44;;;17.40;58.42
76352;BME280;65179;47.786;19.138;2023-04-24T12:43:18;99269.78;;;17.46;58.46
76352;BME280;65179;47.786;19.138;2023-04-24T12:45:47;99269.22;;;17.54;58.31
76352;BME280;65179;47.786;19.138;2023-04-24T12:48:16;99266.22;;;17.51;58.64
76352;BME280;65179;47.786;19.138;2023-04-24T12:50:44;99269.22;;;17.49;59.41
76352;BME280;65179;47.786;19.138;2023-04-24T12:53:10;99266.66;;;17.34;60.11
76352;BME280;65179;47.786;19.138;2023-04-24T12:55:40;99259.16;;;17.39;60.53
76352;BME280;65179;47.786;19.138;2023-04-24T12:58:10;99253.94;;;17.43;62.24
76352;BME280;65179;47.786;19.138;2023-04-24T13:00:38;99251.00;;;17.34;63.28
76352;BME280;65179;47.786;19.138;2023-04-24T13:03:05;99243.66;;;17.30;65.04
76352;BME280;65179;47.786;19.138;2023-04-24T13:05:32;99242.66;;;17.21;70.37
76352;BME280;65179;47.786;19.138;2023-04-24T13:07:59;99249.13;;;17.06;70.39